createdAt,value
2018-06-25T00:01:39.142Z,5.33
2018-06-25T00:04:07.801Z,5.17
2018-06-25T00:06:36.386Z,5.80
2018-06-25T00:09:07.574Z,5.97
2018-06-25T00:11:36.151Z,4.90
2018-06-25T00:14:04.970Z,5.30
2018-06-25T00:16:33.641Z,6.20
2018-06-25T00:19:02.200Z,5.37
2018-06-25T00:21:30.804Z,5.00
2018-06-25T00:23:59.709Z,5.23
2018-06-25T00:26:28.281Z,6.30
2018-06-25T00:28:58.918Z,6.03
2018-06-25T00:31:27.487Z,5.90
2018-06-25T00:33:56.051Z,5.47
2018-06-25T00:36:24.632Z,5.40
2018-06-25T00:38:53.311Z,5.17
2018-06-25T00:41:21.996Z,5.40
2018-06-25T00:43:50.595Z,6.23
2018-06-25T00:46:19.141Z,5.33
2018-06-25T00:48:48.348Z,5.80
2018-06-25T00:51:16.527Z,5.60
2018-06-25T00:53:45.082Z,6.40
2018-06-25T00:56:13.606Z,5.47
2018-06-25T00:59:56.033Z,5.83
2018-06-25T01:02:24.872Z,5.23
2018-06-25T01:04:53.377Z,4.70
2018-06-25T01:07:21.928Z,6.40
2018-06-25T01:09:50.143Z,5.20
2018-06-25T01:12:18.687Z,5.83
2018-06-25T01:14:46.898Z,5.63
2018-06-25T01:17:15.447Z,6.37
2018-06-25T01:19:43.695Z,6.07
2018-06-25T01:22:12.251Z,5.77
2018-06-25T01:24:40.744Z,5.33
2018-06-25T01:27:10.524Z,4.60
2018-06-25T01:29:41.324Z,6.00
2018-06-25T01:32:09.892Z,6.50
2018-06-25T01:34:38.576Z,5.57
2018-06-25T01:37:07.118Z,6.30
2018-06-25T01:39:35.606Z,6.17
2018-06-25T01:42:04.427Z,5.50
2018-06-25T01:44:32.893Z,5.40
2018-06-25T01:47:01.415Z,5.83
2018-06-25T01:49:29.926Z,5.53
2018-06-25T01:51:58.476Z,5.83
2018-06-25T01:54:27.093Z,5.90
2018-06-25T01:56:55.636Z,5.63
2018-06-25T01:59:24.170Z,5.53
2018-06-25T02:01:53.123Z,5.67
2018-06-25T02:04:21.872Z,5.63
2018-06-25T02:06:50.402Z,5.40
2018-06-25T02:09:18.888Z,5.20
2018-06-25T02:11:47.362Z,5.87
2018-06-25T02:14:15.874Z,6.50
2018-06-25T02:16:44.698Z,5.23
2018-06-25T02:19:13.218Z,5.20
2018-06-25T02:21:41.744Z,4.30
2018-06-25T02:24:10.246Z,4.33
2018-06-25T02:26:40.088Z,4.10
2018-06-25T02:29:08.605Z,3.90
2018-06-25T02:31:37.120Z,4.20
2018-06-25T02:34:06.342Z,3.87
2018-06-25T02:36:34.890Z,3.90
2018-06-25T02:39:03.698Z,5.07
2018-06-25T02:41:32.224Z,3.87
2018-06-25T02:44:00.422Z,3.50
2018-06-25T02:46:28.972Z,4.10
2018-06-25T02:48:57.522Z,4.07
2018-06-25T02:51:25.974Z,4.60
2018-06-25T02:53:54.597Z,4.37
2018-06-25T02:56:23.128Z,4.00
2018-06-25T02:58:51.586Z,4.20
2018-06-25T03:01:20.186Z,4.10
2018-06-25T03:03:48.791Z,4.57
2018-06-25T03:06:17.525Z,3.47
2018-06-25T03:08:46.081Z,4.47
2018-06-25T03:11:15.210Z,3.97
2018-06-25T03:13:43.725Z,3.80
2018-06-25T03:16:12.200Z,3.70
2018-06-25T03:18:40.701Z,3.43
2018-06-25T03:21:09.247Z,3.60
2018-06-25T03:23:38.025Z,3.73
2018-06-25T03:26:06.617Z,3.73
2018-06-25T03:28:35.127Z,4.27
2018-06-25T03:31:03.685Z,4.07
2018-06-25T03:33:32.309Z,3.90
2018-06-25T03:36:01.237Z,3.20
2018-06-25T03:38:29.462Z,3.43
2018-06-25T03:40:57.951Z,3.90
2018-06-25T03:43:26.437Z,3.93
2018-06-25T03:45:54.997Z,3.97
2018-06-25T03:48:23.512Z,3.67
2018-06-25T03:50:52.214Z,3.70
2018-06-25T03:53:20.777Z,3.30
2018-06-25T03:55:49.344Z,3.80
2018-06-25T03:58:17.905Z,3.47
2018-06-25T04:00:46.452Z,3.37
2018-06-25T04:03:15.610Z,4.10
2018-06-25T04:05:44.152Z,3.90
2018-06-25T04:08:12.706Z,3.57
2018-06-25T04:10:41.351Z,4.00
2018-06-25T04:16:41.204Z,3.20
2018-06-25T04:19:09.744Z,3.80
2018-06-25T04:21:38.583Z,4.13
2018-06-25T04:24:07.797Z,4.30
2018-06-25T04:26:36.458Z,3.80
2018-06-25T04:29:04.982Z,3.77
2018-06-25T04:31:34.398Z,3.80
2018-06-25T04:34:02.925Z,3.97
2018-06-25T04:36:31.433Z,3.80
2018-06-25T04:38:59.991Z,4.30
2018-06-25T04:41:28.585Z,3.40
2018-06-25T04:43:57.195Z,3.70
2018-06-25T04:46:26.218Z,3.50
2018-06-25T04:48:54.821Z,3.60
2018-06-25T04:51:23.015Z,3.50
2018-06-25T04:53:51.525Z,4.03
2018-06-25T04:56:20.288Z,4.23
2018-06-25T04:58:49.019Z,4.00
2018-06-25T05:01:17.604Z,3.63
2018-06-25T05:03:46.162Z,3.70
2018-06-25T05:06:14.677Z,3.33
2018-06-25T05:08:45.281Z,4.00
2018-06-25T05:11:13.851Z,3.97
2018-06-25T05:13:43.519Z,3.40
2018-06-25T05:16:11.787Z,3.57
2018-06-25T05:18:40.297Z,3.47
2018-06-25T05:21:09.965Z,3.40
2018-06-25T05:23:38.675Z,3.33
2018-06-25T05:26:07.740Z,3.00
2018-06-25T05:28:36.513Z,3.50
2018-06-25T05:31:05.033Z,3.50
2018-06-25T05:33:33.651Z,3.20
2018-06-25T05:36:02.235Z,3.80
2018-06-25T05:38:30.724Z,3.73
2018-06-25T05:40:59.283Z,4.40
2018-06-25T05:43:28.189Z,3.63
2018-06-25T05:45:56.898Z,3.17
2018-06-25T05:48:25.416Z,3.40
2018-06-25T05:50:54.144Z,3.43
2018-06-25T05:53:22.709Z,3.27
2018-06-25T05:55:51.217Z,3.67
2018-06-25T05:58:20.167Z,4.23
2018-06-25T06:00:48.684Z,3.87
2018-06-25T06:03:17.268Z,4.10
2018-06-25T06:05:45.953Z,4.03
2018-06-25T06:08:14.468Z,4.20
2018-06-25T06:10:42.983Z,4.40
2018-06-25T06:13:11.570Z,4.00
2018-06-25T06:15:40.328Z,3.90
2018-06-25T06:18:08.516Z,3.70
2018-06-25T06:20:36.799Z,4.50
2018-06-25T06:23:05.890Z,3.40
2018-06-25T06:25:34.453Z,3.40
2018-06-25T06:28:03.195Z,4.10
2018-06-25T06:30:31.966Z,4.60
2018-06-25T06:33:00.485Z,3.90
2018-06-25T06:35:28.687Z,4.03
2018-06-25T06:37:57.332Z,3.43
2018-06-25T06:40:26.443Z,3.70
2018-06-25T06:42:55.262Z,3.37
2018-06-25T06:45:25.970Z,3.87
2018-06-25T06:47:54.508Z,3.47
2018-06-25T06:50:23.198Z,3.50
2018-06-25T06:52:52.407Z,3.30
2018-06-25T06:55:21.114Z,3.57
2018-06-25T06:57:49.414Z,3.40
2018-06-25T07:00:17.922Z,4.20
2018-06-25T07:02:46.464Z,3.13
2018-06-25T07:05:15.048Z,4.10
2018-06-25T07:07:43.570Z,3.40
2018-06-25T07:10:12.115Z,3.60
2018-06-25T07:12:40.810Z,3.80
2018-06-25T07:15:09.582Z,3.93
2018-06-25T07:17:38.112Z,4.50
2018-06-25T07:20:06.651Z,4.00
2018-06-25T07:22:35.152Z,4.40
2018-06-25T07:25:03.788Z,3.80
2018-06-25T07:27:32.102Z,3.87
2018-06-25T07:30:01.312Z,3.50
2018-06-25T07:32:29.833Z,3.70
2018-06-25T07:34:58.106Z,4.07
2018-06-25T07:37:26.626Z,3.80
2018-06-25T07:39:56.077Z,3.47
2018-06-25T07:42:24.594Z,3.87
2018-06-25T07:44:53.127Z,3.50
2018-06-25T07:47:21.707Z,3.77
2018-06-25T07:49:50.219Z,3.67
2018-06-25T07:52:19.681Z,3.90
2018-06-25T07:54:48.195Z,3.50
2018-06-25T07:57:16.726Z,3.33
2018-06-25T07:59:46.159Z,3.60
2018-06-25T08:02:14.707Z,3.40
2018-06-25T08:04:43.411Z,3.40
2018-06-25T08:07:12.081Z,3.50
2018-06-25T08:09:40.753Z,3.30
2018-06-25T08:12:09.452Z,3.53
2018-06-25T08:14:37.987Z,3.60
2018-06-25T08:17:07.135Z,3.53
2018-06-25T08:19:35.632Z,3.90
2018-06-25T08:22:04.224Z,3.67
2018-06-25T08:24:32.745Z,3.60
2018-06-25T08:27:01.267Z,3.90
2018-06-25T08:29:29.815Z,3.83
2018-06-25T08:31:58.379Z,3.60
2018-06-25T08:34:27.162Z,4.03
2018-06-25T08:36:55.594Z,4.00
2018-06-25T08:39:24.288Z,4.27
2018-06-25T08:41:52.866Z,4.33
2018-06-25T08:44:21.696Z,4.40
2018-06-25T08:46:51.016Z,4.00
2018-06-25T08:49:19.519Z,3.70
2018-06-25T08:51:48.164Z,4.37
2018-06-25T08:54:16.698Z,4.07
2018-06-25T08:56:45.201Z,4.27
2018-06-25T08:59:13.755Z,4.10
2018-06-25T09:01:42.294Z,4.23
2018-06-25T09:04:10.850Z,3.60
2018-06-25T09:06:39.413Z,3.93
2018-06-25T09:09:09.902Z,4.03
2018-06-25T09:11:38.438Z,4.20
2018-06-25T09:14:07.362Z,3.90
2018-06-25T09:16:36.028Z,4.60
2018-06-25T09:19:04.794Z,3.90
2018-06-25T09:21:33.345Z,3.53
2018-06-25T09:24:01.948Z,4.23
2018-06-25T09:26:30.518Z,4.47
2018-06-25T09:28:59.026Z,3.70
2018-06-25T09:31:27.610Z,4.10
2018-06-25T09:33:56.814Z,3.80
2018-06-25T09:36:25.360Z,3.70
2018-06-25T09:38:53.923Z,4.50
2018-06-25T09:41:22.564Z,4.10
2018-06-25T09:43:53.231Z,4.60
2018-06-25T09:46:21.936Z,4.13
2018-06-25T09:48:50.512Z,4.13
2018-06-25T09:51:19.013Z,4.00
2018-06-25T09:53:47.685Z,4.00
2018-06-25T09:56:16.310Z,4.87
2018-06-25T09:58:45.174Z,4.10
2018-06-25T10:01:14.828Z,3.80
2018-06-25T10:03:43.331Z,3.90
2018-06-25T10:06:11.940Z,3.53
2018-06-25T10:08:40.463Z,3.53
2018-06-25T10:11:09.107Z,4.00
2018-06-25T10:13:37.673Z,4.30
2018-06-25T10:16:05.903Z,4.40
2018-06-25T10:18:34.467Z,4.87
2018-06-25T10:21:02.963Z,4.47
2018-06-25T10:23:31.536Z,4.40
2018-06-25T10:26:00.107Z,4.60
2018-06-25T10:28:28.717Z,4.97
2018-06-25T10:30:57.415Z,4.73
2018-06-25T10:33:25.992Z,3.90
2018-06-25T10:35:54.568Z,3.60
2018-06-25T10:38:23.085Z,4.13
2018-06-25T10:40:51.747Z,4.07
2018-06-25T10:43:20.435Z,3.67
2018-06-25T10:45:48.984Z,3.90
2018-06-25T10:48:17.754Z,4.07
2018-06-25T10:50:46.467Z,4.40
2018-06-25T10:53:15.314Z,3.97
2018-06-25T10:55:44.253Z,3.73
2018-06-25T10:58:12.784Z,3.57
2018-06-25T11:00:41.304Z,3.53
2018-06-25T11:03:10.198Z,3.80
2018-06-25T11:05:38.779Z,3.97
2018-06-25T11:08:07.350Z,3.40
2018-06-25T11:10:35.878Z,3.30
2018-06-25T11:13:04.504Z,3.40
2018-06-25T11:15:33.049Z,3.63
2018-06-25T11:18:01.584Z,3.10
2018-06-25T11:20:30.376Z,3.50
2018-06-25T11:22:58.960Z,3.00
2018-06-25T11:25:27.900Z,2.60
2018-06-25T11:27:56.754Z,3.10
2018-06-25T11:30:25.586Z,3.80
2018-06-25T11:32:54.214Z,4.13
2018-06-25T11:35:22.799Z,4.00
2018-06-25T11:37:52.722Z,4.20
2018-06-25T11:40:22.227Z,4.10
2018-06-25T11:42:50.594Z,5.13
2018-06-25T11:45:19.180Z,3.90
2018-06-25T11:47:47.699Z,3.80
2018-06-25T11:50:16.038Z,3.83
2018-06-25T11:52:44.786Z,3.30
2018-06-25T11:55:13.825Z,3.30
2018-06-25T11:57:42.392Z,2.63
2018-06-25T12:00:11.591Z,2.70
2018-06-25T12:02:40.391Z,2.80
2018-06-25T12:05:09.783Z,2.90
2018-06-25T12:07:38.291Z,2.70
2018-06-25T12:10:06.848Z,2.57
2018-06-25T12:12:35.578Z,2.40
2018-06-25T12:15:04.195Z,1.80
2018-06-25T12:17:32.825Z,1.67
2018-06-25T12:20:01.515Z,1.47
2018-06-25T12:22:30.046Z,1.70
2018-06-25T12:24:58.619Z,1.73
2018-06-25T12:27:27.237Z,1.50
2018-06-25T12:29:55.836Z,1.63
2018-06-25T12:32:24.379Z,1.80
2018-06-25T12:34:52.909Z,1.60
2018-06-25T12:37:21.442Z,1.70
2018-06-25T12:39:49.982Z,1.40
2018-06-25T12:42:18.561Z,1.53
2018-06-25T12:44:47.434Z,1.60
2018-06-25T12:47:16.073Z,1.47
2018-06-25T12:49:44.684Z,1.30
2018-06-25T12:52:13.191Z,1.40
2018-06-25T12:54:41.732Z,1.10
2018-06-25T12:57:10.381Z,1.50
2018-06-25T12:59:39.410Z,1.20
2018-06-25T13:02:07.978Z,1.00
2018-06-25T13:04:36.629Z,1.20
2018-06-25T13:07:05.483Z,1.17
2018-06-25T13:09:34.315Z,1.30
2018-06-25T13:12:02.917Z,1.17
2018-06-25T13:14:31.604Z,1.00
2018-06-25T13:17:00.154Z,1.07
2018-06-25T13:19:29.052Z,0.90
2018-06-25T13:21:58.653Z,1.10
2018-06-25T13:24:27.390Z,1.00
2018-06-25T13:26:55.934Z,1.20
2018-06-25T13:29:24.565Z,1.20
2018-06-25T13:31:53.136Z,1.30
2018-06-25T13:34:21.664Z,1.10
2018-06-25T13:36:50.192Z,1.50
2018-06-25T13:39:18.732Z,1.40
2018-06-25T13:41:47.272Z,1.30
2018-06-25T13:44:15.811Z,1.20
2018-06-25T13:46:44.431Z,1.57
2018-06-25T13:49:12.971Z,1.30
2018-06-25T13:51:42.860Z,1.27
2018-06-25T13:54:12.185Z,1.47
2018-06-25T13:56:40.836Z,1.30
2018-06-25T13:59:09.383Z,1.37
2018-06-25T14:01:38.204Z,1.30
2018-06-25T14:04:06.903Z,1.23
2018-06-25T14:06:36.369Z,1.30
2018-06-25T14:09:07.808Z,1.10
2018-06-25T14:11:36.320Z,1.57
2018-06-25T14:14:06.162Z,1.40
2018-06-25T14:16:35.405Z,1.20
2018-06-25T14:19:03.833Z,1.33
2018-06-25T14:21:32.405Z,1.30
2018-06-25T14:24:06.350Z,1.30
2018-06-25T14:26:40.183Z,1.30
2018-06-25T14:29:13.854Z,1.30
2018-06-25T14:31:42.735Z,1.20
2018-06-25T14:34:16.530Z,1.30
2018-06-25T14:36:45.082Z,1.20
2018-06-25T14:39:13.627Z,1.40
2018-06-25T14:41:42.370Z,1.23
2018-06-25T14:44:10.902Z,1.13
2018-06-25T14:46:39.744Z,1.47
2018-06-25T14:49:08.332Z,1.33
2018-06-25T14:51:36.877Z,1.43
2018-06-25T14:54:05.429Z,1.35
2018-06-25T14:56:33.658Z,1.40
2018-06-25T14:59:02.239Z,1.40
2018-06-25T15:01:30.759Z,1.50
2018-06-25T15:03:59.582Z,1.37
2018-06-25T15:06:28.136Z,1.30
2018-06-25T15:08:56.642Z,1.30
2018-06-25T15:11:25.271Z,1.60
2018-06-25T15:13:53.827Z,1.40
2018-06-25T15:16:22.492Z,1.30
2018-06-25T15:18:51.040Z,1.53
2018-06-25T15:21:19.646Z,1.40
2018-06-25T15:23:48.202Z,1.60
2018-06-25T15:26:16.786Z,2.00
2018-06-25T15:28:45.393Z,1.80
2018-06-25T15:31:13.936Z,1.60
2018-06-25T15:33:42.505Z,1.47
2018-06-25T15:36:11.610Z,2.10
2018-06-25T15:38:39.738Z,1.67
2018-06-25T15:41:08.304Z,1.60
2018-06-25T15:43:37.083Z,1.70
2018-06-25T15:46:06.225Z,1.70
2018-06-25T15:48:34.744Z,1.80
2018-06-25T15:51:03.336Z,1.40
2018-06-25T15:53:32.182Z,1.50
2018-06-25T15:56:00.747Z,1.50
2018-06-25T15:58:29.477Z,1.60
2018-06-25T16:00:58.025Z,1.50
2018-06-25T16:03:26.574Z,1.40
2018-06-25T16:05:55.077Z,1.40
2018-06-25T16:08:24.688Z,1.60
2018-06-25T16:10:53.307Z,1.60
2018-06-25T16:13:21.870Z,1.43
2018-06-25T16:15:50.674Z,1.40
2018-06-25T16:18:19.203Z,1.23
2018-06-25T16:20:47.746Z,1.33
2018-06-25T16:23:16.284Z,1.40
2018-06-25T16:25:44.892Z,1.30
2018-06-25T16:28:13.595Z,1.10
2018-06-25T16:30:41.828Z,1.17
2018-06-25T16:33:10.357Z,1.43
2018-06-25T16:35:38.696Z,1.50
2018-06-25T16:38:07.412Z,1.20
2018-06-25T16:40:35.647Z,1.23
2018-06-25T16:43:04.345Z,1.30
2018-06-25T16:45:32.892Z,1.30
2018-06-25T16:48:01.498Z,1.20
2018-06-25T16:50:30.099Z,1.27
2018-06-25T16:52:58.614Z,1.27
2018-06-25T16:55:27.154Z,1.43
2018-06-25T16:57:55.717Z,1.30
2018-06-25T17:00:24.450Z,1.33
2018-06-25T17:02:53.062Z,1.30
2018-06-25T17:05:21.854Z,1.40
2018-06-25T17:07:50.641Z,1.27
2018-06-25T17:10:19.428Z,1.43
2018-06-25T17:12:48.009Z,1.30
2018-06-25T17:15:16.699Z,1.17
2018-06-25T17:17:45.254Z,1.07
2018-06-25T17:20:13.896Z,1.20
2018-06-25T17:22:42.449Z,1.10
2018-06-25T17:25:10.977Z,1.30
2018-06-25T17:27:39.654Z,1.17
2018-06-25T17:30:08.582Z,1.30
2018-06-25T17:32:37.263Z,1.23
2018-06-25T17:35:05.813Z,1.30
2018-06-25T17:37:34.422Z,1.20
2018-06-25T17:40:02.703Z,1.30
2018-06-25T17:42:31.274Z,1.43
2018-06-25T17:44:59.858Z,1.30
2018-06-25T17:47:28.470Z,1.50
2018-06-25T17:49:57.002Z,1.50
2018-06-25T17:52:25.833Z,1.57
2018-06-25T17:54:54.696Z,1.30
2018-06-25T17:57:23.285Z,1.50
2018-06-25T17:59:51.824Z,1.37
2018-06-25T18:02:20.344Z,1.30
2018-06-25T18:04:48.898Z,1.20
2018-06-25T18:07:17.654Z,1.17
2018-06-25T18:09:46.418Z,1.30
2018-06-25T18:12:15.412Z,1.33
2018-06-25T18:14:44.203Z,1.60
2018-06-25T18:17:13.104Z,1.40
2018-06-25T18:19:41.682Z,1.57
2018-06-25T18:22:10.214Z,1.40
2018-06-25T18:24:39.024Z,1.77
2018-06-25T18:27:07.608Z,1.20
2018-06-25T18:29:36.132Z,1.70
2018-06-25T18:32:04.753Z,1.63
2018-06-25T18:34:33.531Z,1.50
2018-06-25T18:37:02.203Z,1.30
2018-06-25T18:39:30.900Z,1.60
2018-06-25T18:42:00.816Z,1.50
2018-06-25T18:44:29.426Z,1.40
2018-06-25T18:46:58.021Z,1.60
2018-06-25T18:49:26.604Z,1.60
2018-06-25T18:51:55.500Z,1.67
2018-06-25T18:54:25.339Z,1.60
2018-06-25T18:56:53.642Z,1.53
2018-06-25T18:59:22.239Z,1.40
2018-06-25T19:01:50.833Z,1.47
2018-06-25T19:04:19.491Z,1.47
2018-06-25T19:06:47.696Z,1.60
2018-06-25T19:09:16.282Z,1.57
2018-06-25T19:11:45.126Z,1.60
2018-06-25T19:14:13.670Z,1.53
2018-06-25T19:16:42.186Z,1.60
2018-06-25T19:19:10.731Z,1.40
2018-06-25T19:21:39.296Z,1.60
2018-06-25T19:24:08.027Z,1.70
2018-06-25T19:26:36.544Z,1.60
2018-06-25T19:29:05.284Z,1.70
2018-06-25T19:31:34.196Z,1.50
2018-06-25T19:34:03.083Z,1.40
2018-06-25T19:36:31.958Z,1.47
2018-06-25T19:39:01.463Z,1.60
2018-06-25T19:41:30.073Z,1.80
2018-06-25T19:43:58.709Z,1.90
2018-06-25T19:46:27.688Z,1.80
2018-06-25T19:48:56.353Z,1.50
2018-06-25T19:51:25.269Z,1.60
2018-06-25T19:53:54.160Z,2.00
2018-06-25T19:56:22.811Z,2.20
2018-06-25T19:58:51.430Z,1.90
2018-06-25T20:01:20.724Z,1.50
2018-06-25T20:03:50.033Z,1.80
2018-06-25T20:06:19.333Z,1.93
2018-06-25T20:08:48.580Z,1.70
2018-06-25T20:11:17.555Z,1.90
2018-06-25T20:13:46.159Z,1.90
2018-06-25T20:16:15.002Z,1.80
2018-06-25T20:18:43.539Z,1.70
2018-06-25T20:21:12.207Z,2.00
2018-06-25T20:23:40.787Z,1.97
2018-06-25T20:26:09.728Z,1.80
2018-06-25T20:28:38.293Z,1.70
2018-06-25T20:31:06.889Z,1.97
2018-06-25T20:33:35.484Z,2.00
2018-06-25T20:36:04.100Z,2.00
2018-06-25T20:38:32.640Z,2.00
2018-06-25T20:41:01.203Z,2.00
2018-06-25T20:43:29.772Z,2.03
2018-06-25T20:45:58.524Z,2.00
2018-06-25T20:48:27.308Z,2.23
2018-06-25T20:50:55.865Z,2.13
2018-06-25T20:53:24.096Z,2.30
2018-06-25T20:55:52.735Z,2.40
2018-06-25T20:58:21.663Z,2.10
2018-06-25T21:00:50.665Z,2.50
2018-06-25T21:03:19.560Z,2.67
2018-06-25T21:05:48.118Z,2.60
2018-06-25T21:08:16.681Z,2.77
2018-06-25T21:10:44.948Z,3.00
2018-06-25T21:13:14.074Z,3.30
2018-06-25T21:15:42.747Z,3.77
2018-06-25T21:18:11.385Z,3.73
2018-06-25T21:20:39.934Z,4.20
2018-06-25T21:23:08.534Z,4.47
2018-06-25T21:25:37.257Z,5.60
2018-06-25T21:28:05.822Z,6.77
2018-06-25T21:30:34.988Z,7.43
2018-06-25T21:33:03.638Z,5.73
2018-06-25T21:35:32.161Z,5.67
2018-06-25T21:38:01.419Z,5.27
2018-06-25T21:40:30.134Z,5.03
2018-06-25T21:42:58.839Z,4.60
2018-06-25T21:45:27.607Z,5.27
2018-06-25T21:47:56.194Z,5.10
2018-06-25T21:50:24.750Z,5.70
2018-06-25T21:52:53.264Z,6.03
2018-06-25T21:55:21.804Z,5.73
2018-06-25T21:57:50.356Z,5.50
2018-06-25T22:00:19.012Z,5.70
2018-06-25T22:02:48.058Z,5.90
2018-06-25T22:05:16.644Z,6.47
2018-06-25T22:07:45.244Z,5.60
2018-06-25T22:10:13.750Z,6.70
2018-06-25T22:12:42.268Z,6.63
2018-06-25T22:15:10.776Z,6.47
2018-06-25T22:17:39.334Z,6.00
2018-06-25T22:20:07.869Z,5.93
2018-06-25T22:22:36.446Z,6.53
2018-06-25T22:25:04.985Z,6.20
2018-06-25T22:27:33.503Z,6.10
2018-06-25T22:30:02.073Z,5.63
2018-06-25T22:32:30.570Z,5.53
2018-06-25T22:34:59.095Z,5.63
2018-06-25T22:37:28.237Z,5.60
2018-06-25T22:39:57.138Z,6.07
2018-06-25T22:42:25.611Z,6.43
2018-06-25T22:44:54.334Z,6.40
2018-06-25T22:47:22.849Z,5.90
2018-06-25T22:49:51.571Z,5.73
2018-06-25T22:52:20.215Z,5.93
2018-06-25T22:54:48.737Z,5.70
2018-06-25T22:57:17.293Z,6.10
2018-06-25T22:59:45.934Z,5.60
2018-06-25T23:02:14.513Z,6.13
2018-06-25T23:04:43.204Z,7.23
2018-06-25T23:07:11.746Z,6.80
2018-06-25T23:09:40.402Z,6.47
2018-06-25T23:12:08.999Z,6.15
2018-06-25T23:14:37.732Z,5.77
2018-06-25T23:17:06.495Z,5.60
2018-06-25T23:19:35.030Z,5.40
2018-06-25T23:22:03.555Z,5.03
2018-06-25T23:24:32.098Z,5.53
2018-06-25T23:27:00.573Z,5.60
2018-06-25T23:29:29.124Z,4.70
2018-06-25T23:31:57.691Z,5.07
2018-06-25T23:34:26.226Z,4.50
2018-06-25T23:36:54.737Z,5.23
2018-06-25T23:39:23.555Z,5.47
2018-06-25T23:41:53.340Z,5.30
2018-06-25T23:44:22.225Z,5.87
2018-06-25T23:46:50.522Z,6.20
2018-06-25T23:49:19.347Z,5.97
2018-06-25T23:51:47.951Z,6.90
2018-06-25T23:54:16.886Z,6.90
2018-06-25T23:56:45.512Z,6.10
2018-06-25T23:59:14.005Z,6.00
